Beaverdale Heights, Iowa
Current Conditions -  °F | °C
As of 3:53 AM on Wednesday 22 Oct 2014 (Local Time) from KBRL Reporting Station
Clear Clear  
Wind Chill: 38°   Ceiling: Unl
Heat Index: 41°   Visibility: 10mi
Dew Point: 38°   Wind: 5mph
Humidity: 89%   Direction: 100°E
Pressure: 30.26"   Gusts: NA
Location:  40.8198°N, 91.2162°W
Report Text: KBRL 220853Z AUTO 10004KT 10SM CLR 05/03 A3026 RMK AO2 SLP249 T00500033 51010
Loading
Personal Weather Stations






























Interactive Weather Map
Tropical Storm Tracking
New forecast layout! Learn more

10-Day Weather Forecast

Advertisements
Track Severe Weather on mobile